Time;durP1;ratioP1;P1;durP2;ratioP2;P2;SDS_P1;SDS_P2;PMS_P1;PMS_P2;Temp;Humidity;BMP_temperature;BMP_pressure;BME280_temperature;BME280_humidity;BME280_pressure;Samples;Min_cycle;Max_cycle;Signal;HPM_P1;HPM_P2
2023/07/23 00:00:39;;;;;;;13.73;5.78;;;14.50;99.90;;;;;;5134504;28;20043;-68
2023/07/23 00:03:05;;;;;;;15.50;5.25;;;14.50;99.90;;;;;;5115845;28;20054;-68
2023/07/23 00:05:31;;;;;;;13.02;5.38;;;14.50;99.90;;;;;;5150007;27;20047;-69
2023/07/23 00:07:58;;;;;;;14.77;5.20;;;14.50;99.90;;;;;;5116981;27;20131;-70
2023/07/23 00:10:25;;;;;;;9.95;4.30;;;14.60;99.90;;;;;;5119126;27;20043;-70
2023/07/23 00:12:51;;;;;;;12.50;4.82;;;14.60;99.90;;;;;;5137800;27;20445;-69
2023/07/23 00:15:18;;;;;;;14.05;5.47;;;14.60;99.90;;;;;;5137384;27;20126;-69
2023/07/23 00:17:43;;;;;;;10.80;4.65;;;14.60;99.90;;;;;;5138103;27;20126;-68
2023/07/23 00:20:11;;;;;;;10.80;5.15;;;14.60;99.90;;;;;;5119234;27;20147;-69
2023/07/23 00:22:38;;;;;;;12.98;5.13;;;14.70;99.90;;;;;;5137590;27;20039;-69
2023/07/23 00:25:03;;;;;;;;;;;14.70;99.90;;;;;;5137907;27;20039;-70
2023/07/23 00:27:29;;;;;;;11.13;4.75;;;14.70;99.90;;;;;;5137540;27;20283;-68
2023/07/23 00:29:56;;;;;;;10.43;5.05;;;14.70;99.90;;;;;;5119132;27;20043;-69
2023/07/23 00:32:22;;;;;;;13.98;5.25;;;14.70;99.90;;;;;;5137362;27;20043;-70
2023/07/23 00:34:47;;;;;;;12.20;5.13;;;14.70;99.90;;;;;;5137336;27;20070;-69
2023/07/23 00:37:13;;;;;;;9.73;3.65;;;14.70;99.90;;;;;;5101844;27;20039;-70
2023/07/23 00:39:39;;;;;;;9.70;4.00;;;14.70;99.90;;;;;;5118897;27;20150;-70
2023/07/23 00:42:05;;;;;;;10.80;4.18;;;14.80;99.90;;;;;;5137550;27;20051;-76
2023/07/23 00:44:31;;;;;;;8.60;3.97;;;14.80;99.90;;;;;;5118772;27;20363;-69
2023/07/23 00:46:59;;;;;;;11.63;4.18;;;14.80;99.90;;;;;;5118755;27;20100;-69
2023/07/23 00:49:25;;;;;;;11.55;4.68;;;14.80;99.90;;;;;;5118449;27;20050;-69
2023/07/23 00:51:52;;;;;;;10.32;4.40;;;14.80;99.90;;;;;;5137080;27;20051;-71
2023/07/23 00:54:19;;;;;;;13.23;4.75;;;14.70;99.90;;;;;;5119071;27;20121;-70
2023/07/23 00:56:46;;;;;;;10.88;5.10;;;14.70;99.90;;;;;;5136312;27;20510;-70
2023/07/23 00:59:12;;;;;;;13.63;5.35;;;14.60;99.90;;;;;;5140570;27;20059;-72
2023/07/23 01:01:38;;;;;;;15.85;5.47;;;14.60;99.90;;;;;;5144943;27;20046;-71
2023/07/23 01:04:05;;;;;;;14.63;4.70;;;14.60;99.90;;;;;;5137149;27;20501;-71
2023/07/23 01:06:33;;;;;;;12.95;4.63;;;14.50;99.90;;;;;;5136678;27;20405;-70
2023/07/23 01:09:00;;;;;;;11.15;4.80;;;14.50;99.90;;;;;;5136533;27;20132;-70
2023/07/23 01:11:27;;;;;;;11.02;5.22;;;14.50;99.90;;;;;;5136777;27;20100;-73
2023/07/23 01:13:55;;;;;;;12.18;5.30;;;14.40;99.90;;;;;;5101318;27;20452;-70
2023/07/23 01:16:22;;;;;;;13.05;5.43;;;14.40;99.90;;;;;;5136144;27;20050;-70
2023/07/23 01:18:48;;;;;;;15.52;5.00;;;14.40;99.90;;;;;;5135819;27;20065;-70
2023/07/23 01:21:17;;;;;;;18.75;5.65;;;14.40;99.90;;;;;;5135724;27;20053;-70
2023/07/23 01:23:43;;;;;;;14.07;6.00;;;14.30;99.90;;;;;;5125437;27;20118;-71
2023/07/23 01:26:10;;;;;;;15.93;5.20;;;14.30;99.90;;;;;;5136169;27;20054;-68
2023/07/23 01:28:36;;;;;;;10.32;5.72;;;14.30;99.90;;;;;;5118232;27;20472;-71
2023/07/23 01:31:02;;;;;;;12.88;5.22;;;14.30;99.90;;;;;;5136196;27;20145;-71
2023/07/23 01:33:28;;;;;;;13.43;5.00;;;14.30;99.90;;;;;;5136113;27;20087;-70
2023/07/23 01:35:59;;;;;;;15.63;6.03;;;14.30;99.90;;;;;;5136817;27;20122;-70
2023/07/23 01:38:25;;;;;;;16.85;5.88;;;14.30;99.90;;;;;;5101908;27;20054;-71
2023/07/23 01:40:52;;;;;;;12.60;5.20;;;14.30;99.90;;;;;;5084905;27;20055;-71
2023/07/23 01:43:19;;;;;;;13.32;5.60;;;14.30;99.90;;;;;;5117950;27;20281;-71
2023/07/23 01:45:45;;;;;;;14.67;6.00;;;14.30;99.90;;;;;;5135808;27;20082;-72
2023/07/23 01:48:12;;;;;;;11.63;5.22;;;14.30;99.90;;;;;;5135871;27;20365;-71
2023/07/23 01:50:38;;;;;;;12.07;5.32;;;14.30;99.90;;;;;;5135664;27;20039;-70
2023/07/23 01:53:04;;;;;;;13.30;5.97;;;14.30;99.90;;;;;;5117548;27;20062;-70
2023/07/23 01:55:30;;;;;;;13.20;5.78;;;14.30;99.90;;;;;;5135553;27;20039;-70
2023/07/23 01:57:56;;;;;;;12.15;5.60;;;14.30;99.90;;;;;;5136007;27;20118;-70
2023/07/23 02:00:21;;;;;;;15.70;5.40;;;14.30;99.90;;;;;;5118326;27;20059;-71
2023/07/23 02:02:47;;;;;;;16.00;6.53;;;14.30;99.90;;;;;;5135466;27;20123;-72
2023/07/23 02:05:17;;;;;;;13.43;5.38;;;14.30;99.90;;;;;;5135517;27;20043;-70
2023/07/23 02:07:43;;;;;;;12.13;5.60;;;14.30;99.90;;;;;;5136004;27;20046;-70
2023/07/23 02:10:11;;;;;;;12.38;5.65;;;14.30;99.90;;;;;;5117352;27;20065;-69
2023/07/23 02:12:37;;;;;;;12.88;5.80;;;14.30;99.90;;;;;;5117384;27;20047;-70
2023/07/23 02:15:03;;;;;;;14.38;5.93;;;14.30;99.90;;;;;;5135356;27;20043;-70
2023/07/23 02:17:29;;;;;;;14.05;5.93;;;14.30;99.90;;;;;;5135518;27;20507;-70
2023/07/23 02:19:55;;;;;;;12.80;6.28;;;14.30;99.90;;;;;;5135234;27;20050;-70
2023/07/23 02:22:21;;;;;;;16.05;6.50;;;14.30;99.90;;;;;;5135137;27;20084;-71
2023/07/23 02:24:46;;;;;;;14.13;6.28;;;14.30;99.90;;;;;;5116810;27;20043;-70
2023/07/23 02:27:14;;;;;;;13.95;6.28;;;14.40;99.90;;;;;;5135049;27;20038;-69
2023/07/23 02:29:40;;;;;;;14.77;6.00;;;14.40;99.90;;;;;;5144811;27;20047;-70
2023/07/23 02:32:06;;;;;;;18.95;6.30;;;14.40;99.90;;;;;;5140230;27;20375;-71
2023/07/23 02:34:32;;;;;;;15.80;6.30;;;14.40;99.90;;;;;;5117479;27;20041;-69
2023/07/23 02:36:58;;;;;;;14.95;6.47;;;14.40;99.90;;;;;;5134890;27;20042;-70
2023/07/23 02:39:24;;;;;;;15.93;6.40;;;14.40;99.90;;;;;;5099546;27;20487;-70
2023/07/23 02:41:49;;;;;;;13.93;6.32;;;14.40;99.90;;;;;;5116659;27;20088;-70
2023/07/23 02:44:15;;;;;;;16.88;6.50;;;14.40;99.90;;;;;;5134791;27;20039;-73
2023/07/23 02:46:41;;;;;;;14.00;6.25;;;14.40;99.90;;;;;;5117451;27;20039;-73
2023/07/23 02:49:07;;;;;;;15.48;6.22;;;14.40;99.90;;;;;;5134804;27;20130;-71
2023/07/23 02:51:32;;;;;;;13.68;6.63;;;14.40;99.90;;;;;;5134748;27;20046;-72
2023/07/23 02:53:58;;;;;;;14.48;6.35;;;14.50;99.90;;;;;;5134961;27;20088;-69
2023/07/23 02:56:24;;;;;;;14.20;6.88;;;14.40;99.90;;;;;;5134279;27;20043;-70
2023/07/23 02:58:50;;;;;;;16.25;6.70;;;14.40;99.90;;;;;;5134497;27;20051;-70
2023/07/23 03:01:17;;;;;;;17.65;7.03;;;14.50;99.90;;;;;;5117210;28;20043;-71
2023/07/23 03:03:47;;;;;;;;;;;14.50;99.90;;;;;;5116524;28;20058;-70
2023/07/23 03:06:13;;;;;;;18.10;6.85;;;14.50;99.90;;;;;;5134441;28;19919;-69
2023/07/23 03:08:39;;;;;;;17.13;6.70;;;14.50;99.90;;;;;;5116591;28;20360;-70
2023/07/23 03:11:05;;;;;;;11.82;6.80;;;14.50;99.90;;;;;;5116725;28;20135;-70
2023/07/23 03:13:31;;;;;;;14.75;6.80;;;14.40;99.90;;;;;;5117091;28;20047;-69
2023/07/23 03:15:57;;;;;;;15.75;7.10;;;14.40;99.90;;;;;;5134347;28;20432;-70
2023/07/23 03:18:23;;;;;;;14.20;6.25;;;14.40;99.90;;;;;;5134431;28;20049;-70
2023/07/23 03:20:49;;;;;;;14.85;6.63;;;14.40;99.90;;;;;;5099525;28;20068;-70
2023/07/23 03:23:15;;;;;;;15.55;6.32;;;14.40;99.90;;;;;;5099276;28;20109;-69
2023/07/23 03:25:40;;;;;;;12.93;6.47;;;14.50;99.90;;;;;;5115883;28;20490;-70
2023/07/23 03:28:06;;;;;;;14.63;6.63;;;14.50;99.90;;;;;;5134844;28;20100;-70
2023/07/23 03:30:32;;;;;;;15.65;7.22;;;14.50;99.90;;;;;;5115670;28;20051;-71
2023/07/23 03:32:58;;;;;;;19.17;7.18;;;14.50;99.90;;;;;;5133748;28;20043;-70
2023/07/23 03:35:23;;;;;;;15.18;7.18;;;14.50;99.90;;;;;;5134368;28;20050;-70
2023/07/23 03:37:50;;;;;;;16.52;6.70;;;14.50;99.90;;;;;;5147679;28;20050;-71
2023/07/23 03:40:15;;;;;;;13.35;6.60;;;14.50;99.90;;;;;;5123150;28;20134;-70
2023/07/23 03:42:41;;;;;;;12.98;6.88;;;14.50;99.90;;;;;;5134881;27;20123;-71
2023/07/23 03:45:08;;;;;;;14.75;6.75;;;14.50;99.90;;;;;;5103505;27;20043;-70
2023/07/23 03:47:34;;;;;;;;;;;14.50;99.90;;;;;;5120376;27;20061;-69
2023/07/23 03:50:02;;;;;;;12.45;6.40;;;14.50;99.90;;;;;;5137951;27;20324;-70
2023/07/23 03:52:28;;;;;;;15.10;7.75;;;14.50;99.90;;;;;;5120590;27;20057;-71
2023/07/23 03:54:54;;;;;;;15.60;7.07;;;14.50;99.90;;;;;;5137847;27;20043;-70
2023/07/23 03:57:19;;;;;;;13.55;6.53;;;14.50;99.90;;;;;;5137618;27;20061;-73
2023/07/23 03:59:46;;;;;;;13.77;6.45;;;14.50;99.90;;;;;;5119572;27;20085;-69
2023/07/23 04:02:12;;;;;;;14.68;7.28;;;14.60;99.90;;;;;;5119643;27;20051;-68
2023/07/23 04:04:39;;;;;;;15.35;7.40;;;14.50;99.90;;;;;;5137649;27;20117;-69
2023/07/23 04:07:06;;;;;;;15.52;7.90;;;14.50;99.90;;;;;;5153971;27;20043;-69
2023/07/23 04:09:32;;;;;;;13.68;6.70;;;14.60;99.90;;;;;;5138179;27;20091;-70
2023/07/23 04:11:58;;;;;;;17.98;7.43;;;14.60;99.90;;;;;;5137656;27;20511;-70
2023/07/23 04:14:25;;;;;;;15.97;7.63;;;14.60;99.90;;;;;;5137540;27;20555;-69
2023/07/23 04:16:50;;;;;;;16.02;7.80;;;14.60;99.90;;;;;;5137904;27;20281;-69
2023/07/23 04:19:16;;;;;;;13.95;7.93;;;14.60;99.90;;;;;;5154005;27;20047;-68
2023/07/23 04:21:43;;;;;;;18.27;8.02;;;14.60;99.90;;;;;;5137281;27;20090;-68
2023/07/23 04:24:08;;;;;;;17.15;8.20;;;14.60;99.90;;;;;;5137286;27;20035;-69
2023/07/23 04:26:34;;;;;;;19.38;8.65;;;14.60;99.90;;;;;;5137201;27;20047;-70
2023/07/23 04:29:00;;;;;;;17.23;8.52;;;14.60;99.90;;;;;;5118899;27;20123;-68
2023/07/23 04:31:26;;;;;;;14.32;7.45;;;14.60;99.90;;;;;;5118947;27;20104;-69
2023/07/23 04:33:53;;;;;;;16.60;8.35;;;14.60;99.90;;;;;;5137107;27;20061;-69
2023/07/23 04:36:19;;;;;;;16.38;8.10;;;14.70;99.90;;;;;;5137519;27;20394;-68
2023/07/23 04:38:45;;;;;;;16.70;7.70;;;14.70;99.90;;;;;;5137234;27;20130;-70
2023/07/23 04:41:11;;;;;;;15.55;7.65;;;14.70;99.90;;;;;;5137016;27;20229;-69
2023/07/23 04:43:38;;;;;;;16.67;7.93;;;14.70;99.90;;;;;;5137348;27;20051;-72
2023/07/23 04:46:04;;;;;;;19.20;7.95;;;14.70;99.90;;;;;;5144752;27;20047;-71
2023/07/23 04:48:34;;;;;;;17.95;8.15;;;14.80;99.90;;;;;;5155892;27;20051;-69
2023/07/23 04:51:01;;;;;;;15.38;7.95;;;14.80;99.90;;;;;;5119092;27;20079;-69
2023/07/23 04:53:27;;;;;;;14.82;7.65;;;14.80;99.90;;;;;;5117751;27;20499;-71
2023/07/23 04:55:54;;;;;;;15.60;8.05;;;14.80;99.90;;;;;;5101477;27;20085;-69
2023/07/23 04:58:21;;;;;;;12.30;7.68;;;14.80;99.90;;;;;;5151927;27;20069;-70
2023/07/23 05:00:47;;;;;;;16.25;7.68;;;14.80;99.90;;;;;;5135497;28;20399;-70
2023/07/23 05:03:13;;;;;;;16.35;7.63;;;14.80;99.90;;;;;;5135529;28;20484;-69
2023/07/23 05:05:45;;;;;;;15.48;7.70;;;14.80;99.90;;;;;;5151585;27;20080;-69
2023/07/23 05:08:11;;;;;;;13.65;6.90;;;14.80;99.90;;;;;;5135735;28;20057;-69
2023/07/23 05:10:37;;;;;;;14.60;7.47;;;14.80;99.90;;;;;;5117301;28;20051;-69
2023/07/23 05:13:03;;;;;;;16.52;8.23;;;14.90;99.90;;;;;;5135252;28;20074;-68
2023/07/23 05:15:29;;;;;;;13.18;7.15;;;14.90;99.90;;;;;;5117530;28;20050;-70
2023/07/23 05:17:54;;;;;;;17.02;7.63;;;15.00;99.90;;;;;;5117341;28;20042;-70
2023/07/23 05:20:20;;;;;;;13.98;7.57;;;15.00;99.90;;;;;;5117135;28;20051;-70
2023/07/23 05:22:46;;;;;;;16.77;8.25;;;15.10;99.90;;;;;;5135050;28;20382;-77
2023/07/23 05:25:12;;;;;;;16.08;7.95;;;15.10;99.90;;;;;;5099938;28;20043;-70
2023/07/23 05:27:38;;;;;;;16.90;8.23;;;15.10;99.90;;;;;;5135120;28;20035;-70
2023/07/23 05:30:05;;;;;;;16.27;7.65;;;15.10;99.90;;;;;;5151033;27;20135;-68
2023/07/23 05:32:31;;;;;;;19.33;7.82;;;15.20;99.90;;;;;;5134946;28;20069;-70
2023/07/23 05:34:57;;;;;;;16.83;7.20;;;15.20;99.90;;;;;;5117170;28;20035;-69
2023/07/23 05:37:25;;;;;;;14.15;7.65;;;15.20;99.90;;;;;;5134857;28;20062;-69
2023/07/23 05:39:53;;;;;;;18.52;8.18;;;15.30;99.90;;;;;;5150794;27;20046;-69
2023/07/23 05:42:19;;;;;;;17.80;8.02;;;15.30;99.90;;;;;;5116746;28;20099;-70
2023/07/23 05:44:45;;;;;;;14.07;7.00;;;15.30;99.90;;;;;;5134837;28;20039;-69
2023/07/23 05:47:11;;;;;;;13.48;7.38;;;15.40;99.90;;;;;;5134676;28;20089;-69
2023/07/23 05:49:36;;;;;;;14.10;7.00;;;15.50;99.90;;;;;;5116420;28;20068;-70
2023/07/23 05:52:02;;;;;;;14.57;7.60;;;15.60;99.90;;;;;;5116763;28;20149;-68
2023/07/23 05:54:28;;;;;;;13.82;7.30;;;15.60;99.90;;;;;;5134642;28;20475;-68
2023/07/23 05:56:54;;;;;;;18.83;7.67;;;15.70;99.90;;;;;;5095084;27;1112128;-68
2023/07/23 05:59:19;;;;;;;16.90;7.40;;;15.70;99.90;;;;;;5135441;27;20090;-68
2023/07/23 06:01:45;;;;;;;16.20;7.75;;;15.80;99.90;;;;;;5117234;27;20390;-67
2023/07/23 06:04:11;;;;;;;13.38;7.63;;;15.80;99.90;;;;;;5135251;27;20542;-68
2023/07/23 06:06:37;;;;;;;17.20;7.32;;;15.90;99.90;;;;;;5134913;27;20050;-69
2023/07/23 06:09:05;;;;;;;12.55;7.05;;;16.00;99.90;;;;;;5135795;27;20066;-68
2023/07/23 06:11:31;;;;;;;16.20;6.88;;;16.00;99.90;;;;;;5135189;27;20043;-69
2023/07/23 06:13:58;;;;;;;16.90;7.57;;;16.10;99.90;;;;;;5135179;27;20069;-69
2023/07/23 06:16:24;;;;;;;17.98;7.70;;;16.10;99.90;;;;;;5116911;27;20104;-68
2023/07/23 06:18:50;;;;;;;15.68;7.28;;;16.10;99.90;;;;;;5116923;27;20047;-69
2023/07/23 06:21:16;;;;;;;13.07;6.97;;;16.20;99.90;;;;;;5116818;27;20112;-68
2023/07/23 06:23:41;;;;;;;13.48;7.55;;;16.30;99.90;;;;;;5134932;27;20035;-68
2023/07/23 06:26:07;;;;;;;21.50;8.00;;;16.30;99.90;;;;;;5134926;27;20078;-68
2023/07/23 06:28:33;;;;;;;14.48;7.57;;;16.40;99.90;;;;;;5117655;27;20129;-70
2023/07/23 06:30:59;;;;;;;14.48;7.38;;;16.40;99.90;;;;;;5135442;27;20542;-69
2023/07/23 06:33:25;;;;;;;16.23;7.55;;;16.50;99.90;;;;;;5135072;27;20043;-70
2023/07/23 06:35:50;;;;;;;13.50;6.93;;;16.60;99.90;;;;;;5116599;27;20509;-68
2023/07/23 06:38:16;;;;;;;13.00;7.20;;;16.60;99.90;;;;;;5116519;27;20046;-69
2023/07/23 06:40:52;;;;;;;13.90;6.80;;;16.60;99.90;;;;;;5150965;27;20055;-68
2023/07/23 06:43:18;;;;;;;14.05;7.07;;;16.70;99.90;;;;;;5116529;27;20085;-69
2023/07/23 06:45:51;;;;;;;15.75;7.05;;;16.80;99.90;;;;;;5117662;27;20050;-69
2023/07/23 06:48:18;;;;;;;13.32;6.65;;;16.80;99.90;;;;;;5116150;27;20039;-69
2023/07/23 06:50:45;;;;;;;15.90;7.20;;;16.80;99.90;;;;;;5134817;27;20386;-71
2023/07/23 06:53:11;;;;;;;18.23;7.57;;;16.80;99.90;;;;;;5150630;27;20039;-69
2023/07/23 06:56:06;;;;;;;13.30;7.10;;;16.70;99.90;;;;;;5116552;28;20051;-68
2023/07/23 06:58:36;;;;;;;15.80;7.65;;;16.70;99.90;;;;;;5134885;27;20063;-69
2023/07/23 07:01:02;;;;;;;15.85;6.88;;;16.60;99.90;;;;;;5116778;27;20521;-69
2023/07/23 07:03:28;;;;;;;19.08;6.90;;;16.60;99.90;;;;;;5135933;28;20047;-68
2023/07/23 07:05:54;;;;;;;14.48;7.28;;;16.60;99.90;;;;;;5134651;27;20445;-68
2023/07/23 07:08:20;;;;;;;15.70;7.40;;;16.70;99.90;;;;;;5134370;28;20130;-68
2023/07/23 07:10:49;;;;;;;16.30;7.17;;;16.70;99.90;;;;;;5134528;28;20119;-68
2023/07/23 07:13:15;;;;;;;14.73;6.88;;;16.60;99.90;;;;;;5116960;28;20372;-70
2023/07/23 07:15:42;;;;;;;14.65;7.00;;;16.70;99.90;;;;;;5135188;28;20043;-68
2023/07/23 07:18:07;;;;;;;14.48;7.07;;;16.60;99.90;;;;;;5117717;27;20085;-69
2023/07/23 07:20:33;;;;;;;12.60;6.35;;;16.60;99.90;;;;;;5138722;27;20067;-68
2023/07/23 07:22:59;;;;;;;15.90;7.20;;;16.60;99.90;;;;;;5139313;27;20051;-68
2023/07/23 07:25:25;;;;;;;13.20;6.50;;;16.60;99.90;;;;;;5120169;27;20075;-69
2023/07/23 07:27:51;;;;;;;11.95;6.35;;;16.60;99.90;;;;;;5120094;27;20053;-68
2023/07/23 07:30:16;;;;;;;13.07;6.40;;;16.60;99.90;;;;;;5138294;27;20047;-69
2023/07/23 07:32:42;;;;;;;14.85;6.25;;;16.60;99.90;;;;;;5119994;27;20095;-69
2023/07/23 07:35:08;;;;;;;14.20;6.03;;;16.60;99.90;;;;;;5120760;27;20047;-70
2023/07/23 07:37:34;;;;;;;14.05;5.97;;;16.60;99.90;;;;;;5138295;27;20376;-68
2023/07/23 07:39:59;;;;;;;16.77;6.03;;;16.50;99.90;;;;;;5120096;27;20051;-69
2023/07/23 07:42:26;;;;;;;13.50;6.00;;;16.50;99.90;;;;;;5119920;27;20479;-71
2023/07/23 07:44:52;;;;;;;13.93;6.13;;;16.50;99.90;;;;;;5119437;27;20076;-70
2023/07/23 07:47:18;;;;;;;14.82;6.30;;;16.40;99.90;;;;;;5119727;27;20491;-68
2023/07/23 07:49:43;;;;;;;15.57;6.30;;;16.40;99.90;;;;;;5119310;27;20090;-69
2023/07/23 07:52:11;;;;;;;13.13;5.90;;;16.30;99.90;;;;;;5137376;27;20099;-72
2023/07/23 07:54:36;;;;;;;15.65;5.88;;;16.20;99.90;;;;;;5119625;27;20105;-69
2023/07/23 07:57:03;;;;;;;16.20;6.10;;;16.20;99.90;;;;;;5137349;27;20095;-69
2023/07/23 07:59:29;;;;;;;16.02;5.80;;;16.10;99.90;;;;;;5138276;27;20066;-69
2023/07/23 08:01:56;;;;;;;14.32;5.75;;;16.00;99.90;;;;;;5137659;27;20043;-69
2023/07/23 08:04:22;;;;;;;13.02;4.97;;;16.00;99.90;;;;;;5119142;27;20122;-69
2023/07/23 08:06:50;;;;;;;16.60;6.22;;;16.00;99.90;;;;;;5137578;27;20049;-69
2023/07/23 08:09:17;;;;;;;12.52;5.47;;;16.00;99.90;;;;;;5119411;27;20047;-68
2023/07/23 08:11:44;;;;;;;12.38;5.32;;;16.00;99.90;;;;;;5103833;27;20051;-70
2023/07/23 08:14:13;;;;;;;13.75;5.72;;;16.20;99.90;;;;;;5139563;27;20122;-67
2023/07/23 08:16:40;;;;;;;11.85;5.65;;;16.20;99.90;;;;;;5137525;27;20086;-69
2023/07/23 08:19:05;;;;;;;;;;;16.30;99.90;;;;;;5119694;27;20498;-69
2023/07/23 08:21:31;;;;;;;10.60;5.17;;;16.40;99.90;;;;;;5153848;27;19923;-69
2023/07/23 08:23:57;;;;;;;11.27;4.80;;;16.50;99.90;;;;;;5137508;27;20043;-68
2023/07/23 08:26:27;;;;;;;10.90;4.78;;;16.60;99.90;;;;;;5118958;27;20057;-69
2023/07/23 08:28:58;;;;;;;11.60;5.53;;;16.70;99.90;;;;;;5137185;27;20065;-69
2023/07/23 08:31:24;;;;;;;11.50;5.07;;;16.80;99.90;;;;;;5136993;27;20047;-68
2023/07/23 08:33:52;;;;;;;12.98;5.30;;;16.70;99.90;;;;;;5118724;27;20069;-69
2023/07/23 08:36:18;;;;;;;10.15;5.00;;;16.70;99.90;;;;;;5101668;27;20089;-69
2023/07/23 08:38:44;;;;;;;14.20;4.70;;;16.60;99.90;;;;;;5137072;27;20039;-69
2023/07/23 08:41:30;;;;;;;11.33;5.20;;;16.60;99.90;;;;;;5136938;27;20051;-69
2023/07/23 08:44:22;;;;;;;12.73;5.25;;;16.60;99.90;;;;;;5137059;27;20039;-69
2023/07/23 08:46:51;;;;;;;10.55;5.10;;;16.50;99.90;;;;;;5118573;27;20043;-69
2023/07/23 08:49:17;;;;;;;10.75;4.65;;;16.50;99.90;;;;;;5118569;27;20140;-69
2023/07/23 08:51:47;;;;;;;11.25;4.57;;;16.50;99.90;;;;;;5118764;27;20207;-68
2023/07/23 08:54:15;;;;;;;12.85;5.90;;;16.40;99.90;;;;;;5136688;27;20087;-70
2023/07/23 08:56:43;;;;;;;9.85;4.75;;;16.30;99.90;;;;;;5136254;27;20043;-70
2023/07/23 08:59:09;;;;;;;9.73;5.03;;;16.30;99.90;;;;;;5137776;27;20082;-68
2023/07/23 09:01:40;;;;;;;12.30;5.47;;;16.30;99.90;;;;;;5136494;27;20176;-70
2023/07/23 09:04:13;;;;;;;9.77;4.32;;;16.30;99.90;;;;;;5118875;27;20304;-68
2023/07/23 09:06:42;;;;;;;11.32;4.57;;;16.30;99.90;;;;;;5136393;27;20047;-70
2023/07/23 09:09:10;;;;;;;10.75;4.38;;;16.40;99.90;;;;;;5118239;27;20078;-69
2023/07/23 09:11:37;;;;;;;10.32;4.65;;;16.40;99.90;;;;;;5118104;27;20082;-70
2023/07/23 09:14:10;;;;;;;9.38;4.65;;;16.50;99.90;;;;;;5119002;27;20047;-69
2023/07/23 09:16:44;;;;;;;13.10;4.90;;;16.40;99.90;;;;;;5136727;27;20039;-69
2023/07/23 09:19:11;;;;;;;9.18;4.00;;;16.50;99.90;;;;;;5138954;27;20094;-68
2023/07/23 09:21:39;;;;;;;10.30;4.97;;;16.50;99.90;;;;;;5118777;27;20058;-70
2023/07/23 09:24:07;;;;;;;11.80;4.90;;;16.60;99.90;;;;;;5117594;27;20070;-69
2023/07/23 09:26:36;;;;;;;10.50;4.80;;;16.50;99.90;;;;;;5117677;27;20043;-68
2023/07/23 09:29:08;;;;;;;7.82;4.25;;;16.60;99.90;;;;;;5100537;27;20074;-70
2023/07/23 09:31:35;;;;;;;9.30;4.10;;;16.60;99.90;;;;;;5135600;27;20047;-70
2023/07/23 09:34:02;;;;;;;7.35;3.58;;;16.70;99.90;;;;;;5117268;27;20043;-70
2023/07/23 09:36:28;;;;;;;;;;;16.70;99.90;;;;;;5135826;27;20090;-69
2023/07/23 09:38:57;;;;;;;10.20;3.35;;;16.70;99.90;;;;;;5117424;27;19919;-70
2023/07/23 09:41:25;;;;;;;11.02;4.07;;;16.70;99.90;;;;;;5134852;27;20051;-69
2023/07/23 09:43:51;;;;;;;8.73;3.70;;;16.80;99.90;;;;;;5135905;27;20122;-70
2023/07/23 09:46:17;;;;;;;8.07;3.28;;;16.80;99.90;;;;;;5117765;27;20104;-69
2023/07/23 09:48:45;;;;;;;10.87;3.70;;;16.70;99.90;;;;;;5135527;27;20383;-69
2023/07/23 09:51:12;;;;;;;7.85;3.97;;;16.70;99.90;;;;;;5151871;27;20050;-69
2023/07/23 09:53:45;;;;;;;8.32;3.63;;;16.70;99.90;;;;;;5117168;27;20057;-69
2023/07/23 09:56:15;;;;;;;8.52;3.40;;;16.70;99.90;;;;;;5117559;27;20047;-69
2023/07/23 09:58:47;;;;;;;8.88;3.55;;;16.80;99.90;;;;;;5116933;27;20130;-68
2023/07/23 10:01:14;;;;;;;5.95;2.95;;;16.80;99.90;;;;;;5135387;27;20055;-69
2023/07/23 10:03:40;;;;;;;6.18;3.00;;;16.90;99.90;;;;;;5135219;27;20057;-68
2023/07/23 10:06:11;;;;;;;6.20;3.13;;;16.90;99.90;;;;;;5151515;27;20039;-68
2023/07/23 10:08:41;;;;;;;6.57;3.28;;;16.90;99.90;;;;;;5101235;27;20112;-68
2023/07/23 10:11:07;;;;;;;5.63;2.33;;;17.00;99.90;;;;;;5135248;27;20046;-67
2023/07/23 10:13:33;;;;;;;7.50;3.38;;;17.10;99.90;;;;;;5135138;27;20126;-68
2023/07/23 10:15:59;;;;;;;6.07;3.20;;;17.10;99.90;;;;;;5135407;27;20079;-68
2023/07/23 10:18:28;;;;;;;8.98;3.60;;;17.20;99.90;;;;;;5135088;27;20047;-66
2023/07/23 10:20:55;;;;;;;6.97;3.47;;;17.10;99.90;;;;;;5134961;27;20088;-67
2023/07/23 10:23:22;;;;;;;7.43;3.17;;;17.10;99.90;;;;;;5134905;27;20044;-68
2023/07/23 10:25:48;;;;;;;7.32;3.65;;;17.10;99.90;;;;;;5134795;27;20039;-68
2023/07/23 10:28:22;;;;;;;8.80;3.90;;;17.20;99.90;;;;;;5134252;27;20043;-67
2023/07/23 10:31:18;;;;;;;8.77;3.13;;;17.20;99.90;;;;;;5135651;27;20050;-67
2023/07/23 10:33:45;;;;;;;8.98;3.88;;;17.20;99.90;;;;;;5116726;27;20451;-67
2023/07/23 10:36:11;;;;;;;;;;;17.20;99.90;;;;;;5135264;27;20078;-68
2023/07/23 10:38:38;;;;;;;8.23;3.73;;;17.10;99.90;;;;;;5134713;27;19973;-68
2023/07/23 10:41:04;;;;;;;;;;;17.10;99.90;;;;;;5117014;27;20046;-68
2023/07/23 10:43:54;;;;;;;10.30;3.50;;;17.10;99.90;;;;;;5117314;27;20018;-68
2023/07/23 10:46:20;;;;;;;9.35;3.83;;;17.20;99.90;;;;;;5134734;27;20039;-68
2023/07/23 10:48:50;;;;;;;9.07;3.50;;;17.20;99.90;;;;;;5134903;27;20043;-67
2023/07/23 10:51:22;;;;;;;8.73;3.92;;;17.20;99.90;;;;;;5134489;27;20086;-67
2023/07/23 10:54:05;;;;;;;9.18;4.47;;;17.20;99.90;;;;;;5116080;27;20051;-69
2023/07/23 10:56:35;;;;;;;9.23;4.18;;;17.20;99.90;;;;;;5134490;27;20104;-67
2023/07/23 10:59:08;;;;;;;10.05;4.22;;;17.20;99.90;;;;;;5134289;27;20059;-68
2023/07/23 11:01:39;;;;;;;8.23;4.15;;;17.30;99.90;;;;;;5134474;27;20131;-66
2023/07/23 11:04:16;;;;;;;8.63;4.03;;;17.20;99.90;;;;;;5134467;27;20039;-66
2023/07/23 11:07:02;;;;;;;9.98;3.85;;;17.30;99.90;;;;;;5099709;28;20050;-68
2023/07/23 11:09:33;;;;;;;8.02;3.80;;;17.20;99.90;;;;;;5134367;27;20086;-66
2023/07/23 11:12:01;;;;;;;8.52;3.95;;;17.30;99.90;;;;;;5116267;28;20135;-67
2023/07/23 11:14:28;;;;;;;10.00;4.05;;;17.30;99.90;;;;;;5134172;28;20103;-68
2023/07/23 11:16:59;;;;;;;9.70;3.85;;;17.30;99.90;;;;;;5133166;28;20108;-67
2023/07/23 11:19:26;;;;;;;10.13;4.35;;;17.40;99.90;;;;;;5134726;28;20040;-70
2023/07/23 11:21:59;;;;;;;12.63;4.60;;;17.40;99.90;;;;;;5115885;28;20111;-68
2023/07/23 11:24:27;;;;;;;8.82;4.15;;;17.40;99.90;;;;;;5116111;28;20039;-68
2023/07/23 11:26:56;;;;;;;8.45;4.05;;;17.40;99.90;;;;;;5082989;28;20042;-69
2023/07/23 11:29:24;;;;;;;9.30;4.10;;;17.40;99.90;;;;;;5134049;28;20047;-68
2023/07/23 11:31:51;;;;;;;8.50;3.67;;;17.30;99.90;;;;;;5134027;28;20273;-67
2023/07/23 11:34:17;;;;;;;;;;;17.30;99.90;;;;;;5134463;28;20047;-66
2023/07/23 11:36:42;;;;;;;7.93;4.07;;;17.30;99.90;;;;;;5115919;28;19984;-69
2023/07/23 11:39:09;;;;;;;7.63;3.55;;;17.40;99.90;;;;;;5099092;28;20039;-67
2023/07/23 11:41:40;;;;;;;8.43;3.47;;;17.40;99.90;;;;;;5115724;28;20495;-67
2023/07/23 11:44:07;;;;;;;6.95;3.20;;;17.40;99.90;;;;;;5116528;28;20092;-68
2023/07/23 11:46:34;;;;;;;8.18;3.00;;;17.50;99.90;;;;;;5150202;27;20134;-66
2023/07/23 11:49:01;;;;;;;7.05;3.28;;;17.50;99.90;;;;;;5133873;28;20062;-68
2023/07/23 11:51:28;;;;;;;9.63;3.28;;;17.50;99.90;;;;;;5116584;28;20051;-67
2023/07/23 11:54:07;;;;;;;8.55;3.78;;;17.60;99.90;;;;;;5150501;27;20103;-68
2023/07/23 11:56:40;;;;;;;6.05;3.30;;;17.60;99.90;;;;;;5134284;28;20051;-68
2023/07/23 11:59:07;;;;;;;8.00;3.25;;;17.70;99.90;;;;;;5134023;28;20096;-68
2023/07/23 12:01:35;;;;;;;7.40;2.72;;;17.60;99.90;;;;;;5115610;28;20050;-69
2023/07/23 12:04:03;;;;;;;8.45;2.15;;;17.60;99.90;;;;;;5135173;27;20084;-68
2023/07/23 12:06:30;;;;;;;7.53;2.50;;;17.70;99.90;;;;;;5086303;27;20062;-68
2023/07/23 12:08:56;;;;;;;6.05;2.53;;;17.60;99.90;;;;;;5137590;27;20051;-67
2023/07/23 12:11:23;;;;;;;6.45;1.95;;;17.70;99.90;;;;;;5137671;27;20047;-68
2023/07/23 12:13:55;;;;;;;;;;;17.70;99.90;;;;;;5137883;27;20051;-68
2023/07/23 12:16:40;;;;;;;4.68;1.80;;;17.70;99.90;;;;;;5137309;27;19919;-68
2023/07/23 12:19:09;;;;;;;6.28;1.85;;;17.80;99.90;;;;;;5137440;27;20081;-66
2023/07/23 12:21:39;;;;;;;4.90;1.88;;;17.80;99.90;;;;;;5137465;27;20051;-67
2023/07/23 12:24:19;;;;;;;6.35;1.63;;;17.80;99.90;;;;;;5138119;27;20070;-68
2023/07/23 12:26:47;;;;;;;5.70;1.60;;;17.80;99.90;;;;;;5137674;27;20071;-69
2023/07/23 12:29:13;;;;;;;5.50;2.03;;;18.00;99.90;;;;;;5102955;27;20043;-65
2023/07/23 12:31:44;;;;;;;5.00;1.92;;;18.10;99.90;;;;;;5137913;27;20046;-68
2023/07/23 12:34:10;;;;;;;4.25;1.70;;;18.20;99.90;;;;;;5119317;27;20094;-66
2023/07/23 12:36:36;;;;;;;5.53;1.85;;;18.40;99.90;;;;;;5119070;27;20039;-67
2023/07/23 12:39:05;;;;;;;3.63;1.73;;;18.60;99.90;;;;;;5137012;27;20126;-66
2023/07/23 12:41:31;;;;;;;7.53;2.03;;;18.70;99.90;;;;;;5136692;27;20170;-69